sensor_id;sensor_type;location;lat;lon;timestamp;P1;durP1;ratioP1;P2;durP2;ratioP2
79562;SDS011;69026;50.980;11.314;2023-06-24T00:02:06;4.07;;;3.00;;
79562;SDS011;69026;50.980;11.314;2023-06-24T00:04:32;3.65;;;2.53;;
79562;SDS011;69026;50.980;11.314;2023-06-24T00:06:59;6.60;;;3.22;;
79562;SDS011;69026;50.980;11.314;2023-06-24T00:09:25;6.25;;;2.90;;
79562;SDS011;69026;50.980;11.314;2023-06-24T00:11:56;5.28;;;2.92;;
79562;SDS011;69026;50.980;11.314;2023-06-24T00:14:24;3.58;;;2.70;;
79562;SDS011;69026;50.980;11.314;2023-06-24T00:16:52;4.18;;;2.58;;
79562;SDS011;69026;50.980;11.314;2023-06-24T00:19:22;3.78;;;2.63;;
79562;SDS011;69026;50.980;11.314;2023-06-24T00:21:49;3.20;;;2.58;;
79562;SDS011;69026;50.980;11.314;2023-06-24T00:24:17;4.22;;;3.20;;
79562;SDS011;69026;50.980;11.314;2023-06-24T00:26:47;3.05;;;2.35;;
79562;SDS011;69026;50.980;11.314;2023-06-24T00:29:13;5.13;;;2.78;;
79562;SDS011;69026;50.980;11.314;2023-06-24T00:31:40;4.10;;;3.10;;
79562;SDS011;69026;50.980;11.314;2023-06-24T00:34:07;4.50;;;2.90;;
79562;SDS011;69026;50.980;11.314;2023-06-24T00:36:33;4.63;;;2.42;;
79562;SDS011;69026;50.980;11.314;2023-06-24T00:39:00;3.25;;;2.47;;
79562;SDS011;69026;50.980;11.314;2023-06-24T00:41:29;4.57;;;2.88;;
79562;SDS011;69026;50.980;11.314;2023-06-24T00:43:55;5.07;;;2.85;;
79562;SDS011;69026;50.980;11.314;2023-06-24T00:46:25;5.18;;;2.47;;
79562;SDS011;69026;50.980;11.314;2023-06-24T00:48:54;4.43;;;2.67;;
79562;SDS011;69026;50.980;11.314;2023-06-24T00:51:21;5.45;;;2.75;;
79562;SDS011;69026;50.980;11.314;2023-06-24T00:53:55;3.10;;;2.40;;
79562;SDS011;69026;50.980;11.314;2023-06-24T00:56:42;6.88;;;2.88;;
79562;SDS011;69026;50.980;11.314;2023-06-24T00:59:10;4.93;;;2.78;;
79562;SDS011;69026;50.980;11.314;2023-06-24T01:01:40;7.35;;;3.05;;
79562;SDS011;69026;50.980;11.314;2023-06-24T01:04:07;3.88;;;2.72;;
79562;SDS011;69026;50.980;11.314;2023-06-24T01:06:34;5.18;;;2.78;;
79562;SDS011;69026;50.980;11.314;2023-06-24T01:09:01;3.50;;;2.33;;
79562;SDS011;69026;50.980;11.314;2023-06-24T01:11:28;4.22;;;2.42;;
79562;SDS011;69026;50.980;11.314;2023-06-24T01:13:55;4.85;;;2.20;;
79562;SDS011;69026;50.980;11.314;2023-06-24T01:19:26;3.85;;;2.33;;
79562;SDS011;69026;50.980;11.314;2023-06-24T01:32:57;3.30;;;2.78;;
79562;SDS011;69026;50.980;11.314;2023-06-24T01:35:31;4.57;;;2.55;;
79562;SDS011;69026;50.980;11.314;2023-06-24T01:38:03;3.13;;;2.28;;
79562;SDS011;69026;50.980;11.314;2023-06-24T01:40:45;3.83;;;2.33;;
79562;SDS011;69026;50.980;11.314;2023-06-24T01:43:13;5.43;;;2.38;;
79562;SDS011;69026;50.980;11.314;2023-06-24T01:45:41;3.90;;;2.35;;
79562;SDS011;69026;50.980;11.314;2023-06-24T01:48:13;3.85;;;2.30;;
79562;SDS011;69026;50.980;11.314;2023-06-24T01:50:44;3.28;;;2.70;;
79562;SDS011;69026;50.980;11.314;2023-06-24T01:53:22;3.30;;;2.70;;
79562;SDS011;69026;50.980;11.314;2023-06-24T01:55:49;3.72;;;2.47;;
79562;SDS011;69026;50.980;11.314;2023-06-24T01:58:18;4.13;;;2.45;;
79562;SDS011;69026;50.980;11.314;2023-06-24T02:00:46;3.97;;;2.05;;
79562;SDS011;69026;50.980;11.314;2023-06-24T02:03:14;4.40;;;2.63;;
79562;SDS011;69026;50.980;11.314;2023-06-24T02:05:40;3.78;;;2.28;;
79562;SDS011;69026;50.980;11.314;2023-06-24T02:08:08;4.95;;;2.53;;
79562;SDS011;69026;50.980;11.314;2023-06-24T02:10:37;5.20;;;2.75;;
79562;SDS011;69026;50.980;11.314;2023-06-24T02:15:30;3.67;;;2.63;;
79562;SDS011;69026;50.980;11.314;2023-06-24T02:17:57;8.68;;;3.00;;
79562;SDS011;69026;50.980;11.314;2023-06-24T02:20:23;4.25;;;2.65;;
79562;SDS011;69026;50.980;11.314;2023-06-24T02:22:54;3.55;;;2.67;;
79562;SDS011;69026;50.980;11.314;2023-06-24T02:25:23;4.95;;;2.70;;
79562;SDS011;69026;50.980;11.314;2023-06-24T02:27:51;3.30;;;2.70;;
79562;SDS011;69026;50.980;11.314;2023-06-24T02:30:19;3.40;;;2.42;;
79562;SDS011;69026;50.980;11.314;2023-06-24T02:32:45;3.17;;;2.42;;
79562;SDS011;69026;50.980;11.314;2023-06-24T02:35:11;3.83;;;2.53;;
79562;SDS011;69026;50.980;11.314;2023-06-24T02:37:37;4.60;;;2.53;;
79562;SDS011;69026;50.980;11.314;2023-06-24T02:40:03;5.60;;;2.85;;
79562;SDS011;69026;50.980;11.314;2023-06-24T02:42:31;5.32;;;2.95;;
79562;SDS011;69026;50.980;11.314;2023-06-24T02:44:58;3.70;;;2.80;;
79562;SDS011;69026;50.980;11.314;2023-06-24T02:47:25;3.58;;;2.70;;
79562;SDS011;69026;50.980;11.314;2023-06-24T02:49:52;3.60;;;2.80;;
79562;SDS011;69026;50.980;11.314;2023-06-24T02:52:19;4.22;;;2.65;;
79562;SDS011;69026;50.980;11.314;2023-06-24T02:54:46;5.28;;;3.25;;
79562;SDS011;69026;50.980;11.314;2023-06-24T02:57:33;6.32;;;3.05;;
79562;SDS011;69026;50.980;11.314;2023-06-24T03:00:21;3.67;;;2.80;;
79562;SDS011;69026;50.980;11.314;2023-06-24T03:03:06;4.50;;;2.65;;
79562;SDS011;69026;50.980;11.314;2023-06-24T03:05:34;3.53;;;2.50;;
79562;SDS011;69026;50.980;11.314;2023-06-24T03:08:01;3.20;;;2.60;;
79562;SDS011;69026;50.980;11.314;2023-06-24T03:10:30;3.80;;;2.70;;
79562;SDS011;69026;50.980;11.314;2023-06-24T03:12:56;3.22;;;2.70;;
79562;SDS011;69026;50.980;11.314;2023-06-24T03:15:29;3.55;;;2.70;;
79562;SDS011;69026;50.980;11.314;2023-06-24T03:17:56;3.85;;;2.78;;
79562;SDS011;69026;50.980;11.314;2023-06-24T03:20:22;4.65;;;2.95;;
79562;SDS011;69026;50.980;11.314;2023-06-24T03:22:49;3.22;;;2.67;;
79562;SDS011;69026;50.980;11.314;2023-06-24T03:25:18;3.47;;;2.53;;
79562;SDS011;69026;50.980;11.314;2023-06-24T03:27:44;4.50;;;3.22;;
79562;SDS011;69026;50.980;11.314;2023-06-24T03:30:11;3.70;;;3.00;;
79562;SDS011;69026;50.980;11.314;2023-06-24T03:32:41;3.55;;;2.65;;
79562;SDS011;69026;50.980;11.314;2023-06-24T03:35:13;4.68;;;2.53;;
79562;SDS011;69026;50.980;11.314;2023-06-24T03:37:39;6.57;;;3.40;;
79562;SDS011;69026;50.980;11.314;2023-06-24T03:40:05;3.10;;;2.75;;
79562;SDS011;69026;50.980;11.314;2023-06-24T03:42:32;5.60;;;2.80;;
79562;SDS011;69026;50.980;11.314;2023-06-24T03:44:58;4.32;;;2.92;;
79562;SDS011;69026;50.980;11.314;2023-06-24T03:47:23;3.20;;;2.72;;
79562;SDS011;69026;50.980;11.314;2023-06-24T03:49:49;6.10;;;3.20;;
79562;SDS011;69026;50.980;11.314;2023-06-24T03:52:16;3.28;;;2.47;;
79562;SDS011;69026;50.980;11.314;2023-06-24T03:54:44;5.32;;;3.20;;
79562;SDS011;69026;50.980;11.314;2023-06-24T03:57:10;3.80;;;2.97;;
79562;SDS011;69026;50.980;11.314;2023-06-24T03:59:36;4.07;;;2.90;;
79562;SDS011;69026;50.980;11.314;2023-06-24T04:02:02;4.43;;;2.58;;
79562;SDS011;69026;50.980;11.314;2023-06-24T04:04:27;6.88;;;3.13;;
79562;SDS011;69026;50.980;11.314;2023-06-24T04:06:55;3.97;;;3.13;;
79562;SDS011;69026;50.980;11.314;2023-06-24T04:09:20;4.70;;;2.83;;
79562;SDS011;69026;50.980;11.314;2023-06-24T04:11:47;3.90;;;2.90;;
79562;SDS011;69026;50.980;11.314;2023-06-24T04:14:13;3.22;;;2.90;;
79562;SDS011;69026;50.980;11.314;2023-06-24T04:16:39;5.40;;;3.25;;
79562;SDS011;69026;50.980;11.314;2023-06-24T04:19:07;4.50;;;2.90;;
79562;SDS011;69026;50.980;11.314;2023-06-24T04:21:33;4.50;;;2.80;;
79562;SDS011;69026;50.980;11.314;2023-06-24T04:23:59;3.35;;;2.80;;
79562;SDS011;69026;50.980;11.314;2023-06-24T04:26:25;3.72;;;2.80;;
79562;SDS011;69026;50.980;11.314;2023-06-24T04:28:51;3.95;;;3.05;;
79562;SDS011;69026;50.980;11.314;2023-06-24T04:31:17;3.58;;;2.78;;
79562;SDS011;69026;50.980;11.314;2023-06-24T04:33:43;4.97;;;2.72;;
79562;SDS011;69026;50.980;11.314;2023-06-24T04:36:08;3.78;;;2.70;;
79562;SDS011;69026;50.980;11.314;2023-06-24T04:38:35;4.55;;;2.53;;
79562;SDS011;69026;50.980;11.314;2023-06-24T04:41:01;4.97;;;2.78;;
79562;SDS011;69026;50.980;11.314;2023-06-24T04:43:27;4.32;;;2.63;;
79562;SDS011;69026;50.980;11.314;2023-06-24T04:45:55;3.60;;;2.60;;
79562;SDS011;69026;50.980;11.314;2023-06-24T04:48:26;3.90;;;2.67;;
79562;SDS011;69026;50.980;11.314;2023-06-24T04:50:52;3.72;;;2.65;;
79562;SDS011;69026;50.980;11.314;2023-06-24T04:53:20;5.07;;;2.80;;
79562;SDS011;69026;50.980;11.314;2023-06-24T04:55:46;3.47;;;2.92;;
79562;SDS011;69026;50.980;11.314;2023-06-24T04:58:12;2.67;;;2.45;;
79562;SDS011;69026;50.980;11.314;2023-06-24T05:00:38;4.35;;;2.90;;
79562;SDS011;69026;50.980;11.314;2023-06-24T05:03:04;4.35;;;2.65;;
79562;SDS011;69026;50.980;11.314;2023-06-24T05:05:30;4.45;;;2.90;;
79562;SDS011;69026;50.980;11.314;2023-06-24T05:07:56;4.82;;;2.95;;
79562;SDS011;69026;50.980;11.314;2023-06-24T05:10:22;7.13;;;2.95;;
79562;SDS011;69026;50.980;11.314;2023-06-24T05:12:47;3.78;;;2.55;;
79562;SDS011;69026;50.980;11.314;2023-06-24T05:15:13;4.82;;;3.03;;
79562;SDS011;69026;50.980;11.314;2023-06-24T05:17:39;3.97;;;2.55;;
79562;SDS011;69026;50.980;11.314;2023-06-24T05:20:05;2.90;;;2.20;;
79562;SDS011;69026;50.980;11.314;2023-06-24T05:22:31;6.22;;;2.80;;
79562;SDS011;69026;50.980;11.314;2023-06-24T05:24:57;2.80;;;2.30;;
79562;SDS011;69026;50.980;11.314;2023-06-24T05:27:23;2.90;;;2.60;;
79562;SDS011;69026;50.980;11.314;2023-06-24T05:29:49;3.50;;;2.65;;
79562;SDS011;69026;50.980;11.314;2023-06-24T05:32:14;4.43;;;2.45;;
79562;SDS011;69026;50.980;11.314;2023-06-24T05:34:43;3.65;;;2.58;;
79562;SDS011;69026;50.980;11.314;2023-06-24T05:37:09;6.28;;;2.97;;
79562;SDS011;69026;50.980;11.314;2023-06-24T05:39:34;3.75;;;2.50;;
79562;SDS011;69026;50.980;11.314;2023-06-24T05:42:00;4.05;;;2.63;;
79562;SDS011;69026;50.980;11.314;2023-06-24T05:44:26;3.60;;;2.53;;
79562;SDS011;69026;50.980;11.314;2023-06-24T05:46:52;4.85;;;2.75;;
79562;SDS011;69026;50.980;11.314;2023-06-24T05:49:17;3.60;;;2.80;;
79562;SDS011;69026;50.980;11.314;2023-06-24T05:51:43;5.28;;;2.80;;
79562;SDS011;69026;50.980;11.314;2023-06-24T05:54:09;3.25;;;2.47;;
79562;SDS011;69026;50.980;11.314;2023-06-24T05:56:35;3.17;;;2.42;;
79562;SDS011;69026;50.980;11.314;2023-06-24T05:59:01;4.32;;;2.33;;
79562;SDS011;69026;50.980;11.314;2023-06-24T06:01:27;5.03;;;2.50;;
79562;SDS011;69026;50.980;11.314;2023-06-24T06:03:53;2.15;;;1.95;;
79562;SDS011;69026;50.980;11.314;2023-06-24T06:06:19;2.53;;;2.22;;
79562;SDS011;69026;50.980;11.314;2023-06-24T06:08:45;4.25;;;2.42;;
79562;SDS011;69026;50.980;11.314;2023-06-24T06:11:10;5.13;;;3.05;;
79562;SDS011;69026;50.980;11.314;2023-06-24T06:13:36;4.85;;;2.40;;
79562;SDS011;69026;50.980;11.314;2023-06-24T06:16:02;2.85;;;2.35;;
79562;SDS011;69026;50.980;11.314;2023-06-24T06:18:28;2.85;;;2.50;;
79562;SDS011;69026;50.980;11.314;2023-06-24T06:20:54;2.88;;;2.40;;
79562;SDS011;69026;50.980;11.314;2023-06-24T06:23:19;3.40;;;2.40;;
79562;SDS011;69026;50.980;11.314;2023-06-24T06:25:45;3.70;;;2.65;;
79562;SDS011;69026;50.980;11.314;2023-06-24T06:28:11;3.30;;;2.45;;
79562;SDS011;69026;50.980;11.314;2023-06-24T06:30:37;3.65;;;2.50;;
79562;SDS011;69026;50.980;11.314;2023-06-24T06:33:03;2.35;;;2.10;;
79562;SDS011;69026;50.980;11.314;2023-06-24T06:35:29;3.05;;;2.28;;
79562;SDS011;69026;50.980;11.314;2023-06-24T06:37:57;2.85;;;2.17;;
79562;SDS011;69026;50.980;11.314;2023-06-24T06:40:23;3.47;;;2.42;;
79562;SDS011;69026;50.980;11.314;2023-06-24T06:42:49;4.88;;;2.28;;
79562;SDS011;69026;50.980;11.314;2023-06-24T06:45:15;3.42;;;2.17;;
79562;SDS011;69026;50.980;11.314;2023-06-24T06:47:41;4.75;;;2.95;;
79562;SDS011;69026;50.980;11.314;2023-06-24T06:50:07;2.92;;;2.47;;
79562;SDS011;69026;50.980;11.314;2023-06-24T06:52:33;3.58;;;2.78;;
79562;SDS011;69026;50.980;11.314;2023-06-24T06:54:59;2.97;;;2.38;;
79562;SDS011;69026;50.980;11.314;2023-06-24T06:57:25;3.08;;;2.53;;
79562;SDS011;69026;50.980;11.314;2023-06-24T06:59:51;3.83;;;2.53;;
79562;SDS011;69026;50.980;11.314;2023-06-24T07:02:17;3.88;;;2.42;;
79562;SDS011;69026;50.980;11.314;2023-06-24T07:04:43;3.38;;;2.33;;
79562;SDS011;69026;50.980;11.314;2023-06-24T07:07:09;3.88;;;2.45;;
79562;SDS011;69026;50.980;11.314;2023-06-24T07:09:37;4.07;;;2.70;;
79562;SDS011;69026;50.980;11.314;2023-06-24T07:12:03;4.72;;;2.83;;
79562;SDS011;69026;50.980;11.314;2023-06-24T07:14:29;3.55;;;2.70;;
79562;SDS011;69026;50.980;11.314;2023-06-24T07:16:54;3.67;;;2.92;;
79562;SDS011;69026;50.980;11.314;2023-06-24T07:19:20;4.13;;;2.60;;
79562;SDS011;69026;50.980;11.314;2023-06-24T07:21:46;3.88;;;2.55;;
79562;SDS011;69026;50.980;11.314;2023-06-24T07:24:11;4.13;;;2.42;;
79562;SDS011;69026;50.980;11.314;2023-06-24T07:26:37;3.30;;;2.70;;
79562;SDS011;69026;50.980;11.314;2023-06-24T07:29:05;4.10;;;2.78;;
79562;SDS011;69026;50.980;11.314;2023-06-24T07:31:32;4.05;;;2.72;;
79562;SDS011;69026;50.980;11.314;2023-06-24T07:33:58;4.82;;;2.63;;
79562;SDS011;69026;50.980;11.314;2023-06-24T07:36:24;5.88;;;2.78;;
79562;SDS011;69026;50.980;11.314;2023-06-24T07:38:50;4.43;;;3.03;;
79562;SDS011;69026;50.980;11.314;2023-06-24T07:41:15;5.40;;;3.10;;
79562;SDS011;69026;50.980;11.314;2023-06-24T07:43:41;4.35;;;3.42;;
79562;SDS011;69026;50.980;11.314;2023-06-24T07:46:07;6.57;;;3.08;;
79562;SDS011;69026;50.980;11.314;2023-06-24T07:48:33;4.57;;;3.20;;
79562;SDS011;69026;50.980;11.314;2023-06-24T07:50:58;5.20;;;3.28;;
79562;SDS011;69026;50.980;11.314;2023-06-24T07:53:24;6.70;;;3.40;;
79562;SDS011;69026;50.980;11.314;2023-06-24T07:55:50;6.00;;;3.17;;
79562;SDS011;69026;50.980;11.314;2023-06-24T07:58:16;5.78;;;3.42;;
79562;SDS011;69026;50.980;11.314;2023-06-24T08:00:41;6.47;;;3.20;;
79562;SDS011;69026;50.980;11.314;2023-06-24T08:03:08;4.32;;;2.65;;
79562;SDS011;69026;50.980;11.314;2023-06-24T08:05:33;4.25;;;2.88;;
79562;SDS011;69026;50.980;11.314;2023-06-24T08:07:59;3.38;;;2.58;;
79562;SDS011;69026;50.980;11.314;2023-06-24T08:10:25;6.88;;;3.20;;
79562;SDS011;69026;50.980;11.314;2023-06-24T08:12:51;4.97;;;3.03;;
79562;SDS011;69026;50.980;11.314;2023-06-24T08:15:16;6.95;;;3.33;;
79562;SDS011;69026;50.980;11.314;2023-06-24T08:17:42;6.15;;;2.72;;
79562;SDS011;69026;50.980;11.314;2023-06-24T08:20:08;4.53;;;3.03;;
79562;SDS011;69026;50.980;11.314;2023-06-24T08:22:34;9.48;;;3.38;;
79562;SDS011;69026;50.980;11.314;2023-06-24T08:25:00;4.00;;;2.75;;
79562;SDS011;69026;50.980;11.314;2023-06-24T08:27:26;6.32;;;2.70;;
79562;SDS011;69026;50.980;11.314;2023-06-24T08:29:52;3.95;;;2.88;;
79562;SDS011;69026;50.980;11.314;2023-06-24T08:32:17;3.72;;;2.42;;
79562;SDS011;69026;50.980;11.314;2023-06-24T08:34:43;4.88;;;2.83;;
79562;SDS011;69026;50.980;11.314;2023-06-24T08:37:09;5.10;;;2.40;;
79562;SDS011;69026;50.980;11.314;2023-06-24T08:39:35;3.58;;;2.67;;
79562;SDS011;69026;50.980;11.314;2023-06-24T08:42:02;3.47;;;2.78;;
79562;SDS011;69026;50.980;11.314;2023-06-24T08:44:28;2.67;;;2.38;;
79562;SDS011;69026;50.980;11.314;2023-06-24T08:46:53;5.65;;;2.35;;
79562;SDS011;69026;50.980;11.314;2023-06-24T08:51:54;4.10;;;2.80;;
79562;SDS011;69026;50.980;11.314;2023-06-24T08:54:36;5.60;;;2.30;;
79562;SDS011;69026;50.980;11.314;2023-06-24T08:57:04;5.72;;;2.70;;
79562;SDS011;69026;50.980;11.314;2023-06-24T08:59:32;3.53;;;3.10;;
79562;SDS011;69026;50.980;11.314;2023-06-24T09:01:59;2.95;;;2.30;;
79562;SDS011;69026;50.980;11.314;2023-06-24T09:04:25;3.50;;;2.40;;
79562;SDS011;69026;50.980;11.314;2023-06-24T09:06:51;4.45;;;2.65;;
79562;SDS011;69026;50.980;11.314;2023-06-24T09:09:23;4.07;;;2.58;;
79562;SDS011;69026;50.980;11.314;2023-06-24T09:11:52;3.30;;;2.17;;
79562;SDS011;69026;50.980;11.314;2023-06-24T09:14:19;2.90;;;2.28;;
79562;SDS011;69026;50.980;11.314;2023-06-24T09:16:56;3.13;;;2.72;;
79562;SDS011;69026;50.980;11.314;2023-06-24T09:19:24;4.32;;;2.38;;
79562;SDS011;69026;50.980;11.314;2023-06-24T09:22:04;4.00;;;2.47;;
79562;SDS011;69026;50.980;11.314;2023-06-24T09:24:32;2.72;;;2.08;;
79562;SDS011;69026;50.980;11.314;2023-06-24T09:26:58;2.70;;;2.10;;
79562;SDS011;69026;50.980;11.314;2023-06-24T09:29:27;4.22;;;2.38;;
79562;SDS011;69026;50.980;11.314;2023-06-24T09:31:57;2.97;;;2.50;;
79562;SDS011;69026;50.980;11.314;2023-06-24T09:34:28;3.00;;;2.40;;
79562;SDS011;69026;50.980;11.314;2023-06-24T09:36:55;3.17;;;2.47;;
79562;SDS011;69026;50.980;11.314;2023-06-24T09:39:22;2.40;;;2.00;;
79562;SDS011;69026;50.980;11.314;2023-06-24T09:41:58;3.75;;;2.40;;
79562;SDS011;69026;50.980;11.314;2023-06-24T09:44:26;2.72;;;2.17;;
79562;SDS011;69026;50.980;11.314;2023-06-24T09:46:53;2.75;;;2.00;;
79562;SDS011;69026;50.980;11.314;2023-06-24T09:49:21;2.83;;;2.00;;
79562;SDS011;69026;50.980;11.314;2023-06-24T09:51:48;3.30;;;2.20;;
79562;SDS011;69026;50.980;11.314;2023-06-24T09:54:15;4.07;;;2.35;;
79562;SDS011;69026;50.980;11.314;2023-06-24T09:56:50;3.58;;;1.98;;
79562;SDS011;69026;50.980;11.314;2023-06-24T09:59:18;2.85;;;2.20;;
79562;SDS011;69026;50.980;11.314;2023-06-24T10:01:47;2.55;;;2.13;;
79562;SDS011;69026;50.980;11.314;2023-06-24T10:04:16;2.55;;;1.85;;
79562;SDS011;69026;50.980;11.314;2023-06-24T10:06:43;2.72;;;2.05;;
79562;SDS011;69026;50.980;11.314;2023-06-24T10:09:09;3.50;;;2.47;;
79562;SDS011;69026;50.980;11.314;2023-06-24T10:11:38;3.80;;;2.30;;
79562;SDS011;69026;50.980;11.314;2023-06-24T10:14:05;2.35;;;1.88;;
79562;SDS011;69026;50.980;11.314;2023-06-24T10:16:31;3.13;;;2.30;;
79562;SDS011;69026;50.980;11.314;2023-06-24T10:19:00;2.38;;;1.88;;
79562;SDS011;69026;50.980;11.314;2023-06-24T10:21:46;2.20;;;2.00;;
79562;SDS011;69026;50.980;11.314;2023-06-24T10:24:29;2.78;;;2.03;;
79562;SDS011;69026;50.980;11.314;2023-06-24T10:26:55;2.58;;;1.92;;
79562;SDS011;69026;50.980;11.314;2023-06-24T10:29:39;3.78;;;2.28;;
79562;SDS011;69026;50.980;11.314;2023-06-24T10:32:09;2.63;;;1.90;;
79562;SDS011;69026;50.980;11.314;2023-06-24T10:37:12;2.53;;;2.03;;
79562;SDS011;69026;50.980;11.314;2023-06-24T10:39:54;3.15;;;1.92;;
79562;SDS011;69026;50.980;11.314;2023-06-24T10:44:52;2.65;;;2.00;;
79562;SDS011;69026;50.980;11.314;2023-06-24T10:47:26;3.38;;;2.13;;
79562;SDS011;69026;50.980;11.314;2023-06-24T10:49:53;3.08;;;2.00;;
79562;SDS011;69026;50.980;11.314;2023-06-24T10:52:19;2.15;;;1.83;;
79562;SDS011;69026;50.980;11.314;2023-06-24T10:54:49;2.30;;;1.80;;
79562;SDS011;69026;50.980;11.314;2023-06-24T10:57:20;3.08;;;1.92;;
79562;SDS011;69026;50.980;11.314;2023-06-24T10:59:48;2.72;;;1.90;;
79562;SDS011;69026;50.980;11.314;2023-06-24T11:02:15;2.65;;;1.95;;
79562;SDS011;69026;50.980;11.314;2023-06-24T11:04:46;3.17;;;2.38;;
79562;SDS011;69026;50.980;11.314;2023-06-24T11:07:17;2.55;;;2.25;;
79562;SDS011;69026;50.980;11.314;2023-06-24T11:10:26;2.58;;;2.08;;
79562;SDS011;69026;50.980;11.314;2023-06-24T11:12:35;2.58;;;2.10;;
79562;SDS011;69026;50.980;11.314;2023-06-24T11:15:03;2.53;;;1.85;;
79562;SDS011;69026;50.980;11.314;2023-06-24T11:17:32;2.72;;;1.98;;
79562;SDS011;69026;50.980;11.314;2023-06-24T11:22:25;2.55;;;1.90;;
79562;SDS011;69026;50.980;11.314;2023-06-24T11:24:52;2.38;;;1.80;;
79562;SDS011;69026;50.980;11.314;2023-06-24T11:27:25;2.95;;;1.92;;
79562;SDS011;69026;50.980;11.314;2023-06-24T11:29:53;2.63;;;2.00;;
79562;SDS011;69026;50.980;11.314;2023-06-24T11:32:20;3.05;;;2.10;;
79562;SDS011;69026;50.980;11.314;2023-06-24T11:34:46;3.15;;;2.17;;
79562;SDS011;69026;50.980;11.314;2023-06-24T11:37:13;2.25;;;1.80;;
79562;SDS011;69026;50.980;11.314;2023-06-24T11:39:42;2.47;;;2.10;;
79562;SDS011;69026;50.980;11.314;2023-06-24T11:42:08;2.10;;;1.90;;
79562;SDS011;69026;50.980;11.314;2023-06-24T11:44:35;3.92;;;2.33;;
79562;SDS011;69026;50.980;11.314;2023-06-24T11:47:04;3.08;;;2.20;;
79562;SDS011;69026;50.980;11.314;2023-06-24T11:49:52;3.53;;;2.10;;
79562;SDS011;69026;50.980;11.314;2023-06-24T11:52:31;2.85;;;2.20;;
79562;SDS011;69026;50.980;11.314;2023-06-24T11:55:18;2.85;;;2.10;;
79562;SDS011;69026;50.980;11.314;2023-06-24T12:03:01;4.70;;;2.17;;
79562;SDS011;69026;50.980;11.314;2023-06-24T12:05:29;2.00;;;1.60;;
79562;SDS011;69026;50.980;11.314;2023-06-24T12:07:56;2.97;;;2.40;;
79562;SDS011;69026;50.980;11.314;2023-06-24T12:10:27;2.78;;;1.70;;
79562;SDS011;69026;50.980;11.314;2023-06-24T12:12:55;3.60;;;2.30;;
79562;SDS011;69026;50.980;11.314;2023-06-24T12:15:22;2.97;;;2.53;;
79562;SDS011;69026;50.980;11.314;2023-06-24T12:17:48;2.40;;;2.00;;
79562;SDS011;69026;50.980;11.314;2023-06-24T12:20:14;3.08;;;2.33;;
79562;SDS011;69026;50.980;11.314;2023-06-24T12:22:40;2.60;;;2.00;;
79562;SDS011;69026;50.980;11.314;2023-06-24T12:25:07;2.92;;;2.25;;
79562;SDS011;69026;50.980;11.314;2023-06-24T12:27:34;2.53;;;1.83;;
79562;SDS011;69026;50.980;11.314;2023-06-24T12:29:59;3.40;;;1.80;;
79562;SDS011;69026;50.980;11.314;2023-06-24T12:32:26;2.78;;;1.85;;
79562;SDS011;69026;50.980;11.314;2023-06-24T12:34:52;3.17;;;2.05;;
79562;SDS011;69026;50.980;11.314;2023-06-24T12:37:18;3.28;;;2.47;;
79562;SDS011;69026;50.980;11.314;2023-06-24T12:39:44;2.58;;;1.88;;
79562;SDS011;69026;50.980;11.314;2023-06-24T12:42:10;2.85;;;2.13;;
79562;SDS011;69026;50.980;11.314;2023-06-24T12:44:36;3.35;;;2.50;;
79562;SDS011;69026;50.980;11.314;2023-06-24T12:47:02;2.90;;;2.05;;
79562;SDS011;69026;50.980;11.314;2023-06-24T12:49:28;2.63;;;2.03;;
79562;SDS011;69026;50.980;11.314;2023-06-24T12:51:54;2.70;;;2.03;;
79562;SDS011;69026;50.980;11.314;2023-06-24T12:54:20;4.32;;;2.33;;
79562;SDS011;69026;50.980;11.314;2023-06-24T12:56:46;4.93;;;2.50;;
79562;SDS011;69026;50.980;11.314;2023-06-24T12:59:11;3.33;;;2.30;;
79562;SDS011;69026;50.980;11.314;2023-06-24T13:01:37;3.97;;;2.28;;
79562;SDS011;69026;50.980;11.314;2023-06-24T13:04:03;4.15;;;2.00;;
79562;SDS011;69026;50.980;11.314;2023-06-24T13:06:29;6.13;;;2.60;;
79562;SDS011;69026;50.980;11.314;2023-06-24T13:08:55;2.88;;;2.25;;
79562;SDS011;69026;50.980;11.314;2023-06-24T13:11:21;4.43;;;2.20;;
79562;SDS011;69026;50.980;11.314;2023-06-24T13:13:46;9.65;;;2.70;;
79562;SDS011;69026;50.980;11.314;2023-06-24T13:16:12;4.15;;;2.42;;
79562;SDS011;69026;50.980;11.314;2023-06-24T13:18:38;3.47;;;2.60;;
79562;SDS011;69026;50.980;11.314;2023-06-24T13:21:04;5.13;;;2.65;;
79562;SDS011;69026;50.980;11.314;2023-06-24T13:23:30;3.13;;;2.53;;
79562;SDS011;69026;50.980;11.314;2023-06-24T13:25:55;6.72;;;2.53;;
79562;SDS011;69026;50.980;11.314;2023-06-24T13:28:22;4.60;;;2.33;;
79562;SDS011;69026;50.980;11.314;2023-06-24T13:30:48;4.55;;;2.50;;
79562;SDS011;69026;50.980;11.314;2023-06-24T13:33:15;4.65;;;2.40;;
79562;SDS011;69026;50.980;11.314;2023-06-24T13:35:41;3.17;;;2.60;;
79562;SDS011;69026;50.980;11.314;2023-06-24T13:38:06;4.78;;;2.70;;
79562;SDS011;69026;50.980;11.314;2023-06-24T13:40:33;3.58;;;2.10;;
79562;SDS011;69026;50.980;11.314;2023-06-24T13:42:59;3.85;;;2.25;;
79562;SDS011;69026;50.980;11.314;2023-06-24T13:45:26;4.45;;;2.58;;
79562;SDS011;69026;50.980;11.314;2023-06-24T13:47:51;4.43;;;2.72;;
79562;SDS011;69026;50.980;11.314;2023-06-24T13:50:17;5.85;;;3.00;;
79562;SDS011;69026;50.980;11.314;2023-06-24T13:52:43;5.38;;;2.60;;
79562;SDS011;69026;50.980;11.314;2023-06-24T13:55:09;4.97;;;2.53;;
79562;SDS011;69026;50.980;11.314;2023-06-24T13:57:34;3.38;;;2.60;;
79562;SDS011;69026;50.980;11.314;2023-06-24T14:00:00;5.10;;;2.67;;
79562;SDS011;69026;50.980;11.314;2023-06-24T14:02:26;3.00;;;2.35;;
79562;SDS011;69026;50.980;11.314;2023-06-24T14:04:52;4.88;;;2.55;;
79562;SDS011;69026;50.980;11.314;2023-06-24T14:07:18;2.97;;;2.60;;
79562;SDS011;69026;50.980;11.314;2023-06-24T14:09:44;3.95;;;2.65;;
79562;SDS011;69026;50.980;11.314;2023-06-24T14:12:10;4.45;;;2.75;;
79562;SDS011;69026;50.980;11.314;2023-06-24T14:14:36;3.63;;;2.53;;
79562;SDS011;69026;50.980;11.314;2023-06-24T14:17:04;2.97;;;2.60;;
79562;SDS011;69026;50.980;11.314;2023-06-24T14:19:34;3.10;;;2.45;;
79562;SDS011;69026;50.980;11.314;2023-06-24T14:22:01;2.80;;;2.28;;
79562;SDS011;69026;50.980;11.314;2023-06-24T14:24:27;3.63;;;2.42;;
79562;SDS011;69026;50.980;11.314;2023-06-24T14:26:52;3.60;;;2.90;;
79562;SDS011;69026;50.980;11.314;2023-06-24T14:29:18;3.03;;;2.40;;
79562;SDS011;69026;50.980;11.314;2023-06-24T14:31:44;3.88;;;2.88;;
79562;SDS011;69026;50.980;11.314;2023-06-24T14:34:10;4.28;;;2.55;;
79562;SDS011;69026;50.980;11.314;2023-06-24T14:36:36;4.00;;;2.78;;
79562;SDS011;69026;50.980;11.314;2023-06-24T14:39:02;3.20;;;2.42;;
79562;SDS011;69026;50.980;11.314;2023-06-24T14:41:28;3.67;;;2.60;;
79562;SDS011;69026;50.980;11.314;2023-06-24T14:43:53;6.45;;;2.65;;
79562;SDS011;69026;50.980;11.314;2023-06-24T14:46:19;6.55;;;2.72;;
79562;SDS011;69026;50.980;11.314;2023-06-24T14:48:45;3.45;;;2.40;;
79562;SDS011;69026;50.980;11.314;2023-06-24T14:51:11;5.00;;;2.50;;
79562;SDS011;69026;50.980;11.314;2023-06-24T14:53:37;2.72;;;2.33;;
79562;SDS011;69026;50.980;11.314;2023-06-24T14:56:02;6.28;;;2.75;;
79562;SDS011;69026;50.980;11.314;2023-06-24T14:58:29;3.17;;;2.55;;
79562;SDS011;69026;50.980;11.314;2023-06-24T15:00:54;4.63;;;2.95;;
79562;SDS011;69026;50.980;11.314;2023-06-24T15:03:20;5.97;;;2.63;;
79562;SDS011;69026;50.980;11.314;2023-06-24T15:05:46;4.45;;;2.60;;
79562;SDS011;69026;50.980;11.314;2023-06-24T15:08:12;3.08;;;2.47;;